sensor_id;sensor_type;location;lat;lon;timestamp;pressure;altitude;pressure_sealevel;temperature;humidity
60212;BME280;46079;48.686;15.598;2023-03-15T00:00:20;98883.13;;;20.44;38.62
60212;BME280;46079;48.686;15.598;2023-03-15T00:02:45;98904.81;;;20.47;38.75
60212;BME280;46079;48.686;15.598;2023-03-15T00:05:11;98891.69;;;20.47;38.58
60212;BME280;46079;48.686;15.598;2023-03-15T00:07:39;98902.19;;;20.47;38.76
60212;BME280;46079;48.686;15.598;2023-03-15T00:10:05;98904.63;;;20.48;38.79
60212;BME280;46079;48.686;15.598;2023-03-15T00:12:31;98907.44;;;20.47;38.62
60212;BME280;46079;48.686;15.598;2023-03-15T00:14:58;98905.47;;;20.49;38.68
60212;BME280;46079;48.686;15.598;2023-03-15T00:17:24;98910.75;;;20.49;38.63
60212;BME280;46079;48.686;15.598;2023-03-15T00:19:49;98912.38;;;20.50;38.79
60212;BME280;46079;48.686;15.598;2023-03-15T00:22:14;98916.81;;;20.49;39.22
60212;BME280;46079;48.686;15.598;2023-03-15T00:24:40;98906.31;;;20.49;38.82
60212;BME280;46079;48.686;15.598;2023-03-15T00:27:05;98924.50;;;20.51;38.84
60212;BME280;46079;48.686;15.598;2023-03-15T00:29:31;98924.50;;;20.51;38.84
60212;BME280;46079;48.686;15.598;2023-03-15T00:31:57;98926.16;;;20.52;39.13
60212;BME280;46079;48.686;15.598;2023-03-15T00:34:22;98931.41;;;20.52;38.76
60212;BME280;46079;48.686;15.598;2023-03-15T00:36:50;98929.63;;;20.52;39.22
60212;BME280;46079;48.686;15.598;2023-03-15T00:39:18;98933.06;;;20.53;38.99
60212;BME280;46079;48.686;15.598;2023-03-15T00:41:44;98933.91;;;20.53;39.07
60212;BME280;46079;48.686;15.598;2023-03-15T00:44:10;98936.53;;;20.53;38.89
60212;BME280;46079;48.686;15.598;2023-03-15T00:46:36;98934.72;;;20.54;39.54
60212;BME280;46079;48.686;15.598;2023-03-15T00:49:02;98940.81;;;20.54;39.11
60212;BME280;46079;48.686;15.598;2023-03-15T00:51:28;98940.81;;;20.54;38.93
60212;BME280;46079;48.686;15.598;2023-03-15T00:53:55;98938.19;;;20.54;38.95
60212;BME280;46079;48.686;15.598;2023-03-15T00:56:25;98945.06;;;20.55;39.08
60212;BME280;46079;48.686;15.598;2023-03-15T00:58:51;98955.44;;;20.57;38.91
60212;BME280;46079;48.686;15.598;2023-03-15T01:01:22;98954.59;;;20.56;39.14
60212;BME280;46079;48.686;15.598;2023-03-15T01:03:48;98961.66;;;20.56;38.96
60212;BME280;46079;48.686;15.598;2023-03-15T01:06:26;98980.88;;;20.56;39.30
60212;BME280;46079;48.686;15.598;2023-03-15T01:08:52;98982.53;;;20.57;39.01
60212;BME280;46079;48.686;15.598;2023-03-15T01:11:23;98988.59;;;20.58;39.25
60212;BME280;46079;48.686;15.598;2023-03-15T01:13:51;98996.47;;;20.58;39.02
60212;BME280;46079;48.686;15.598;2023-03-15T01:16:17;99005.19;;;20.58;39.17
60212;BME280;46079;48.686;15.598;2023-03-15T01:18:43;99005.19;;;20.58;39.10
60212;BME280;46079;48.686;15.598;2023-03-15T01:21:11;99013.88;;;20.59;39.25
60212;BME280;46079;48.686;15.598;2023-03-15T01:23:37;99017.31;;;20.59;39.35
60212;BME280;46079;48.686;15.598;2023-03-15T01:26:04;99017.31;;;20.59;39.17
60212;BME280;46079;48.686;15.598;2023-03-15T01:28:30;99014.69;;;20.59;39.26
60212;BME280;46079;48.686;15.598;2023-03-15T01:30:56;99013.72;;;20.60;39.33
60212;BME280;46079;48.686;15.598;2023-03-15T01:33:22;99017.16;;;20.61;39.31
60212;BME280;46079;48.686;15.598;2023-03-15T01:35:48;99027.69;;;20.61;39.14
60212;BME280;46079;48.686;15.598;2023-03-15T01:38:21;99019.81;;;20.61;39.38
60212;BME280;46079;48.686;15.598;2023-03-15T01:40:47;99024.06;;;20.62;39.51
60212;BME280;46079;48.686;15.598;2023-03-15T01:43:31;99026.69;;;20.62;39.67
60212;BME280;46079;48.686;15.598;2023-03-15T01:46:14;99030.97;;;20.63;39.70
60212;BME280;46079;48.686;15.598;2023-03-15T01:51:22;99037.88;;;20.64;39.70
60212;BME280;46079;48.686;15.598;2023-03-15T01:53:54;99042.13;;;20.65;39.57
60212;BME280;46079;48.686;15.598;2023-03-15T01:56:23;99039.50;;;20.65;39.39
60212;BME280;46079;48.686;15.598;2023-03-15T01:58:51;99042.97;;;20.65;39.09
60212;BME280;46079;48.686;15.598;2023-03-15T02:01:18;99039.50;;;20.65;39.47
60212;BME280;46079;48.686;15.598;2023-03-15T02:03:46;99037.72;;;20.65;39.60
60212;BME280;46079;48.686;15.598;2023-03-15T02:06:17;99054.13;;;20.68;39.55
60212;BME280;46079;48.686;15.598;2023-03-15T02:08:48;99060.22;;;20.68;39.61
60212;BME280;46079;48.686;15.598;2023-03-15T02:11:17;99058.56;;;20.67;39.34
60212;BME280;46079;48.686;15.598;2023-03-15T02:13:43;99057.59;;;20.68;39.48
60212;BME280;46079;48.686;15.598;2023-03-15T02:16:09;99067.94;;;20.70;39.32
60212;BME280;46079;48.686;15.598;2023-03-15T02:18:35;99060.06;;;20.70;39.63
60212;BME280;46079;48.686;15.598;2023-03-15T02:21:22;99082.75;;;20.71;39.79
60212;BME280;46079;48.686;15.598;2023-03-15T02:26:56;99080.94;;;20.71;39.83
60212;BME280;46079;48.686;15.598;2023-03-15T02:29:23;99080.75;;;20.73;39.47
60212;BME280;46079;48.686;15.598;2023-03-15T02:31:51;99082.56;;;20.72;39.31
60212;BME280;46079;48.686;15.598;2023-03-15T02:34:16;99075.50;;;20.73;39.83
60212;BME280;46079;48.686;15.598;2023-03-15T02:36:42;99077.16;;;20.74;39.78
60212;BME280;46079;48.686;15.598;2023-03-15T02:39:18;99078.78;;;20.75;40.02
60212;BME280;46079;48.686;15.598;2023-03-15T02:42:05;99076.97;;;20.75;39.99
60212;BME280;46079;48.686;15.598;2023-03-15T02:44:36;99082.25;;;20.75;39.88
60212;BME280;46079;48.686;15.598;2023-03-15T02:47:05;99080.44;;;20.76;40.15
60212;BME280;46079;48.686;15.598;2023-03-15T02:49:36;99065.66;;;20.75;39.85
60212;BME280;46079;48.686;15.598;2023-03-15T02:52:04;99077.66;;;20.77;39.61
60212;BME280;46079;48.686;15.598;2023-03-15T02:54:29;99063.84;;;20.75;39.68
60212;BME280;46079;48.686;15.598;2023-03-15T02:57:02;99061.88;;;20.77;39.82
60212;BME280;46079;48.686;15.598;2023-03-15T02:59:28;99064.50;;;20.77;39.67
60212;BME280;46079;48.686;15.598;2023-03-15T03:01:53;99074.03;;;20.78;39.71
60212;BME280;46079;48.686;15.598;2023-03-15T03:04:19;99076.66;;;20.78;39.69
60212;BME280;46079;48.686;15.598;2023-03-15T03:06:44;99072.06;;;20.80;39.92
60212;BME280;46079;48.686;15.598;2023-03-15T03:09:10;99091.28;;;20.81;40.03
60212;BME280;46079;48.686;15.598;2023-03-15T03:11:36;99090.47;;;20.80;39.68
60212;BME280;46079;48.686;15.598;2023-03-15T03:14:02;99096.53;;;20.81;39.73
60212;BME280;46079;48.686;15.598;2023-03-15T03:16:27;99100.00;;;20.81;39.83
60212;BME280;46079;48.686;15.598;2023-03-15T03:18:53;99106.25;;;20.80;39.68
60212;BME280;46079;48.686;15.598;2023-03-15T03:21:18;99116.59;;;20.82;39.79
60212;BME280;46079;48.686;15.598;2023-03-15T03:23:44;99106.09;;;20.82;39.79
60212;BME280;46079;48.686;15.598;2023-03-15T03:26:16;99115.59;;;20.83;39.79
60212;BME280;46079;48.686;15.598;2023-03-15T03:28:44;99123.50;;;20.83;39.57
60212;BME280;46079;48.686;15.598;2023-03-15T03:31:18;99125.97;;;20.84;39.86
60212;BME280;46079;48.686;15.598;2023-03-15T03:33:44;99121.53;;;20.85;40.06
60212;BME280;46079;48.686;15.598;2023-03-15T03:36:09;99114.47;;;20.85;39.52
60212;BME280;46079;48.686;15.598;2023-03-15T03:38:39;99118.72;;;20.86;39.92
60212;BME280;46079;48.686;15.598;2023-03-15T03:41:04;99117.78;;;20.87;39.86
60212;BME280;46079;48.686;15.598;2023-03-15T03:43:30;99118.72;;;20.86;40.04
60212;BME280;46079;48.686;15.598;2023-03-15T03:45:55;99116.94;;;20.87;39.91
60212;BME280;46079;48.686;15.598;2023-03-15T03:48:20;99123.03;;;20.87;40.10
60212;BME280;46079;48.686;15.598;2023-03-15T03:50:46;99122.03;;;20.88;39.99
60212;BME280;46079;48.686;15.598;2023-03-15T03:53:11;99116.78;;;20.88;39.99
60212;BME280;46079;48.686;15.598;2023-03-15T03:55:36;99128.91;;;20.90;39.77
60212;BME280;46079;48.686;15.598;2023-03-15T03:58:02;99133.22;;;20.91;40.00
60212;BME280;46079;48.686;15.598;2023-03-15T04:00:27;99142.75;;;20.92;39.60
60212;BME280;46079;48.686;15.598;2023-03-15T04:02:53;99133.22;;;20.91;39.88
60212;BME280;46079;48.686;15.598;2023-03-15T04:05:18;99131.41;;;20.91;39.77
60212;BME280;46079;48.686;15.598;2023-03-15T04:07:44;99137.47;;;20.92;40.25
60212;BME280;46079;48.686;15.598;2023-03-15T04:10:10;99138.28;;;20.92;39.66
60212;BME280;46079;48.686;15.598;2023-03-15T04:12:41;99144.41;;;20.93;39.72
60212;BME280;46079;48.686;15.598;2023-03-15T04:15:07;99152.28;;;20.93;39.86
60212;BME280;46079;48.686;15.598;2023-03-15T04:17:32;99146.03;;;20.94;39.72
60212;BME280;46079;48.686;15.598;2023-03-15T04:19:58;99149.47;;;20.94;39.69
60212;BME280;46079;48.686;15.598;2023-03-15T04:22:26;99150.31;;;20.95;39.89
60212;BME280;46079;48.686;15.598;2023-03-15T04:24:51;99163.44;;;20.95;39.76
60212;BME280;46079;48.686;15.598;2023-03-15T04:27:16;99158.19;;;20.95;39.59
60212;BME280;46079;48.686;15.598;2023-03-15T04:29:42;99167.75;;;20.96;39.71
60212;BME280;46079;48.686;15.598;2023-03-15T04:32:08;99168.56;;;20.96;39.83
60212;BME280;46079;48.686;15.598;2023-03-15T04:34:34;99178.06;;;20.97;39.72
60212;BME280;46079;48.686;15.598;2023-03-15T04:37:03;99180.72;;;20.97;39.93
60212;BME280;46079;48.686;15.598;2023-03-15T04:39:29;99187.78;;;20.97;39.75
60212;BME280;46079;48.686;15.598;2023-03-15T04:41:54;99183.34;;;20.97;39.92
60212;BME280;46079;48.686;15.598;2023-03-15T04:44:19;99195.53;;;20.98;39.74
60212;BME280;46079;48.686;15.598;2023-03-15T04:46:45;99200.91;;;20.97;39.73
60212;BME280;46079;48.686;15.598;2023-03-15T04:49:10;99194.66;;;20.98;39.73
60212;BME280;46079;48.686;15.598;2023-03-15T04:51:36;99200.78;;;20.98;40.01
60212;BME280;46079;48.686;15.598;2023-03-15T04:54:01;99206.03;;;20.98;39.70
60212;BME280;46079;48.686;15.598;2023-03-15T04:56:28;99206.84;;;20.99;39.77
60212;BME280;46079;48.686;15.598;2023-03-15T04:58:54;99205.88;;;21.00;39.73
60212;BME280;46079;48.686;15.598;2023-03-15T05:01:22;99220.81;;;20.99;39.97
60212;BME280;46079;48.686;15.598;2023-03-15T05:03:49;99214.75;;;20.99;39.90
60212;BME280;46079;48.686;15.598;2023-03-15T05:06:15;99217.19;;;21.00;40.04
60212;BME280;46079;48.686;15.598;2023-03-15T05:08:40;99224.25;;;21.00;39.67
60212;BME280;46079;48.686;15.598;2023-03-15T05:11:05;99210.16;;;21.01;39.71
60212;BME280;46079;48.686;15.598;2023-03-15T05:13:31;99208.50;;;21.00;39.89
60212;BME280;46079;48.686;15.598;2023-03-15T05:15:57;99211.13;;;21.00;39.82
60212;BME280;46079;48.686;15.598;2023-03-15T05:18:22;99211.78;;;21.02;39.78
60212;BME280;46079;48.686;15.598;2023-03-15T05:20:49;99213.59;;;21.01;39.82
60212;BME280;46079;48.686;15.598;2023-03-15T05:23:14;99229.19;;;21.03;39.90
60212;BME280;46079;48.686;15.598;2023-03-15T05:25:40;99232.81;;;21.02;39.61
60212;BME280;46079;48.686;15.598;2023-03-15T05:28:05;99239.72;;;21.03;39.83
60212;BME280;46079;48.686;15.598;2023-03-15T05:30:31;99236.13;;;21.04;39.91
60212;BME280;46079;48.686;15.598;2023-03-15T05:32:57;99236.13;;;21.04;39.73
60212;BME280;46079;48.686;15.598;2023-03-15T05:35:22;99246.66;;;21.04;39.86
60212;BME280;46079;48.686;15.598;2023-03-15T05:37:51;99239.72;;;21.03;39.90
60212;BME280;46079;48.686;15.598;2023-03-15T05:40:17;99245.78;;;21.03;39.81
60212;BME280;46079;48.686;15.598;2023-03-15T05:42:42;99255.34;;;21.04;39.91
60212;BME280;46079;48.686;15.598;2023-03-15T05:45:08;99249.28;;;21.04;39.89
60212;BME280;46079;48.686;15.598;2023-03-15T05:47:33;99258.81;;;21.05;39.82
60212;BME280;46079;48.686;15.598;2023-03-15T05:49:59;99264.06;;;21.05;39.76
60212;BME280;46079;48.686;15.598;2023-03-15T05:52:24;99271.94;;;21.05;39.56
60212;BME280;46079;48.686;15.598;2023-03-15T05:54:50;99275.56;;;21.04;38.41
60212;BME280;46079;48.686;15.598;2023-03-15T05:57:16;99285.09;;;21.05;38.00
60212;BME280;46079;48.686;15.598;2023-03-15T05:59:41;99281.66;;;21.04;37.95
60212;BME280;46079;48.686;15.598;2023-03-15T06:02:07;99291.34;;;21.04;37.73
60212;BME280;46079;48.686;15.598;2023-03-15T06:04:32;99293.97;;;21.04;37.74
60212;BME280;46079;48.686;15.598;2023-03-15T06:06:58;99289.53;;;21.04;37.65
60212;BME280;46079;48.686;15.598;2023-03-15T06:09:23;99304.50;;;21.04;37.56
60212;BME280;46079;48.686;15.598;2023-03-15T06:11:49;99306.28;;;21.03;37.66
60212;BME280;46079;48.686;15.598;2023-03-15T06:14:15;99318.59;;;21.03;37.62
60212;BME280;46079;48.686;15.598;2023-03-15T06:16:40;99330.78;;;21.04;37.35
60212;BME280;46079;48.686;15.598;2023-03-15T06:19:06;99334.38;;;21.03;37.48
60212;BME280;46079;48.686;15.598;2023-03-15T06:21:31;99334.38;;;21.03;37.40
60212;BME280;46079;48.686;15.598;2023-03-15T06:23:56;99340.63;;;21.02;37.53
60212;BME280;46079;48.686;15.598;2023-03-15T06:26:22;99344.53;;;20.98;35.97
60212;BME280;46079;48.686;15.598;2023-03-15T06:28:47;99349.59;;;20.91;34.42
60212;BME280;46079;48.686;15.598;2023-03-15T06:31:14;99349.69;;;20.81;33.50
60212;BME280;46079;48.686;15.598;2023-03-15T06:33:39;99361.00;;;20.74;32.59
60212;BME280;46079;48.686;15.598;2023-03-15T06:36:05;99369.63;;;20.66;32.67
60212;BME280;46079;48.686;15.598;2023-03-15T06:38:31;99358.06;;;20.59;33.40
60212;BME280;46079;48.686;15.598;2023-03-15T06:40:57;99366.13;;;20.57;33.68
60212;BME280;46079;48.686;15.598;2023-03-15T06:43:25;99372.19;;;20.58;35.14
60212;BME280;46079;48.686;15.598;2023-03-15T06:45:51;99375.66;;;20.58;36.08
60212;BME280;46079;48.686;15.598;2023-03-15T06:48:17;99377.47;;;20.58;36.03
60212;BME280;46079;48.686;15.598;2023-03-15T06:50:43;99386.03;;;20.60;36.22
60212;BME280;46079;48.686;15.598;2023-03-15T06:53:08;99386.66;;;20.62;36.10
60212;BME280;46079;48.686;15.598;2023-03-15T06:55:34;99382.09;;;20.64;36.34
60212;BME280;46079;48.686;15.598;2023-03-15T06:57:59;99382.09;;;20.64;36.18
60212;BME280;46079;48.686;15.598;2023-03-15T07:00:24;99388.03;;;20.66;35.88
60212;BME280;46079;48.686;15.598;2023-03-15T07:02:50;99392.31;;;20.67;36.37
60212;BME280;46079;48.686;15.598;2023-03-15T07:05:16;99400.88;;;20.69;36.43
60212;BME280;46079;48.686;15.598;2023-03-15T07:07:41;99405.97;;;20.71;36.43
60212;BME280;46079;48.686;15.598;2023-03-15T07:10:07;99413.69;;;20.72;36.54
60212;BME280;46079;48.686;15.598;2023-03-15T07:12:32;99424.91;;;20.74;36.55
60212;BME280;46079;48.686;15.598;2023-03-15T07:14:58;99427.53;;;20.74;36.63
60212;BME280;46079;48.686;15.598;2023-03-15T07:17:23;99434.41;;;20.75;36.55
60212;BME280;46079;48.686;15.598;2023-03-15T07:19:49;99447.41;;;20.77;36.60
60212;BME280;46079;48.686;15.598;2023-03-15T07:22:16;99445.63;;;20.77;36.54
60212;BME280;46079;48.686;15.598;2023-03-15T07:24:42;99457.75;;;20.78;36.67
60212;BME280;46079;48.686;15.598;2023-03-15T07:27:11;99454.31;;;20.78;36.52
60212;BME280;46079;48.686;15.598;2023-03-15T07:29:36;99453.34;;;20.79;36.80
60212;BME280;46079;48.686;15.598;2023-03-15T07:32:01;99455.81;;;20.80;36.51
60212;BME280;46079;48.686;15.598;2023-03-15T07:34:27;99455.81;;;20.80;36.56
60212;BME280;46079;48.686;15.598;2023-03-15T07:36:52;99458.31;;;20.82;36.58
60212;BME280;46079;48.686;15.598;2023-03-15T07:39:18;99455.69;;;20.82;36.66
60212;BME280;46079;48.686;15.598;2023-03-15T07:41:43;99459.13;;;20.82;36.57
60212;BME280;46079;48.686;15.598;2023-03-15T07:44:09;99462.44;;;20.84;36.69
60212;BME280;46079;48.686;15.598;2023-03-15T07:46:34;99471.28;;;20.83;36.57
60212;BME280;46079;48.686;15.598;2023-03-15T07:49:00;99466.19;;;20.82;36.84
60212;BME280;46079;48.686;15.598;2023-03-15T07:51:25;99471.28;;;20.83;36.71
60212;BME280;46079;48.686;15.598;2023-03-15T07:53:51;99472.97;;;20.84;36.75
60212;BME280;46079;48.686;15.598;2023-03-15T07:56:17;99475.59;;;20.84;36.80
60212;BME280;46079;48.686;15.598;2023-03-15T07:58:42;99483.31;;;20.86;36.69
60212;BME280;46079;48.686;15.598;2023-03-15T08:01:08;99481.50;;;20.86;36.79
60212;BME280;46079;48.686;15.598;2023-03-15T08:03:33;99480.53;;;20.87;36.87
60212;BME280;46079;48.686;15.598;2023-03-15T08:05:59;99477.75;;;20.89;36.63
60212;BME280;46079;48.686;15.598;2023-03-15T08:08:24;99487.28;;;20.90;36.84
60212;BME280;46079;48.686;15.598;2023-03-15T08:10:50;99485.31;;;20.92;36.67
60212;BME280;46079;48.686;15.598;2023-03-15T08:13:15;99484.50;;;20.92;36.80
60212;BME280;46079;48.686;15.598;2023-03-15T08:15:44;99493.06;;;20.94;36.59
60212;BME280;46079;48.686;15.598;2023-03-15T08:18:10;99495.56;;;20.95;36.57
60212;BME280;46079;48.686;15.598;2023-03-15T08:20:35;99500.66;;;20.97;36.63
60212;BME280;46079;48.686;15.598;2023-03-15T08:23:01;99503.97;;;20.99;36.67
60212;BME280;46079;48.686;15.598;2023-03-15T08:25:27;99511.69;;;21.00;36.87
60212;BME280;46079;48.686;15.598;2023-03-15T08:27:53;99509.03;;;21.00;36.69
60212;BME280;46079;48.686;15.598;2023-03-15T08:30:19;99517.63;;;21.02;36.60
60212;BME280;46079;48.686;15.598;2023-03-15T08:32:48;99513.19;;;21.03;36.72
60212;BME280;46079;48.686;15.598;2023-03-15T08:35:15;99514.84;;;21.04;36.66
60212;BME280;46079;48.686;15.598;2023-03-15T08:37:41;99514.00;;;21.03;36.62
60212;BME280;46079;48.686;15.598;2023-03-15T08:40:11;99526.03;;;21.06;36.59
60212;BME280;46079;48.686;15.598;2023-03-15T08:42:37;99530.63;;;21.04;36.60
60212;BME280;46079;48.686;15.598;2023-03-15T08:45:07;99538.34;;;21.05;36.67
60212;BME280;46079;48.686;15.598;2023-03-15T08:47:33;99532.13;;;21.06;36.59
60212;BME280;46079;48.686;15.598;2023-03-15T08:50:10;99535.59;;;21.07;36.63
60212;BME280;46079;48.686;15.598;2023-03-15T08:52:36;99549.56;;;21.07;36.54
60212;BME280;46079;48.686;15.598;2023-03-15T08:55:02;99546.09;;;21.07;36.60
60212;BME280;46079;48.686;15.598;2023-03-15T08:57:29;99552.19;;;21.07;36.60
60212;BME280;46079;48.686;15.598;2023-03-15T09:00:00;99566.16;;;21.08;36.50
60212;BME280;46079;48.686;15.598;2023-03-15T09:02:30;99563.53;;;21.08;36.73
60212;BME280;46079;48.686;15.598;2023-03-15T09:04:56;99566.97;;;21.08;36.38
60212;BME280;46079;48.686;15.598;2023-03-15T09:07:21;99567.81;;;21.09;36.82
60212;BME280;46079;48.686;15.598;2023-03-15T09:09:47;99570.44;;;21.09;36.63
60212;BME280;46079;48.686;15.598;2023-03-15T09:12:14;99579.16;;;21.09;36.58
60212;BME280;46079;48.686;15.598;2023-03-15T09:14:40;99574.84;;;21.08;36.44
60212;BME280;46079;48.686;15.598;2023-03-15T09:17:05;99575.72;;;21.09;36.72
60212;BME280;46079;48.686;15.598;2023-03-15T09:19:31;99573.09;;;21.09;36.46
60212;BME280;46079;48.686;15.598;2023-03-15T09:21:56;99567.81;;;21.09;36.50
60212;BME280;46079;48.686;15.598;2023-03-15T09:24:22;99587.06;;;21.09;36.49
60212;BME280;46079;48.686;15.598;2023-03-15T09:26:47;99583.59;;;21.09;36.50
60212;BME280;46079;48.686;15.598;2023-03-15T09:29:12;99594.94;;;21.09;36.61
60212;BME280;46079;48.686;15.598;2023-03-15T09:31:38;99598.53;;;21.08;36.59
60212;BME280;46079;48.686;15.598;2023-03-15T09:34:04;99590.63;;;21.08;36.58
60212;BME280;46079;48.686;15.598;2023-03-15T09:36:30;99596.75;;;21.09;36.67
60212;BME280;46079;48.686;15.598;2023-03-15T09:38:56;99608.22;;;21.08;36.65
60212;BME280;46079;48.686;15.598;2023-03-15T09:44:11;99605.59;;;21.08;36.31
60212;BME280;46079;48.686;15.598;2023-03-15T09:46:45;99610.84;;;21.08;36.47
60212;BME280;46079;48.686;15.598;2023-03-15T09:49:51;99611.69;;;21.08;36.36
60212;BME280;46079;48.686;15.598;2023-03-15T09:52:40;99602.00;;;21.09;36.53
60212;BME280;46079;48.686;15.598;2023-03-15T09:55:41;99616.13;;;21.08;36.63
60212;BME280;46079;48.686;15.598;2023-03-15T09:58:12;99610.84;;;21.08;36.56
60212;BME280;46079;48.686;15.598;2023-03-15T10:03:31;99610.84;;;21.08;36.44
60212;BME280;46079;48.686;15.598;2023-03-15T10:06:07;99613.47;;;21.08;36.81
60212;BME280;46079;48.686;15.598;2023-03-15T10:08:36;99614.47;;;21.07;36.58
60212;BME280;46079;48.686;15.598;2023-03-15T10:11:28;99605.59;;;21.08;36.51
60212;BME280;46079;48.686;15.598;2023-03-15T10:16:39;99601.47;;;21.05;36.44
60212;BME280;46079;48.686;15.598;2023-03-15T10:22:10;99612.81;;;21.06;36.51
60212;BME280;46079;48.686;15.598;2023-03-15T10:29:48;99608.53;;;21.05;36.48
60212;BME280;46079;48.686;15.598;2023-03-15T10:32:16;99602.28;;;21.06;36.45
60212;BME280;46079;48.686;15.598;2023-03-15T10:34:54;99609.34;;;21.05;36.31
60212;BME280;46079;48.686;15.598;2023-03-15T10:37:22;99597.19;;;21.04;36.33
60212;BME280;46079;48.686;15.598;2023-03-15T10:39:56;99613.66;;;21.06;36.43
60212;BME280;46079;48.686;15.598;2023-03-15T10:42:30;99601.47;;;21.05;36.40
60212;BME280;46079;48.686;15.598;2023-03-15T10:44:57;99606.72;;;21.05;36.50
60212;BME280;46079;48.686;15.598;2023-03-15T10:47:25;99596.38;;;21.04;36.38
60212;BME280;46079;48.686;15.598;2023-03-15T10:49:56;99605.91;;;21.05;36.42
60212;BME280;46079;48.686;15.598;2023-03-15T10:52:37;99606.88;;;21.04;36.39
60212;BME280;46079;48.686;15.598;2023-03-15T10:55:04;99595.50;;;21.03;36.15
60212;BME280;46079;48.686;15.598;2023-03-15T10:57:34;99605.22;;;21.03;36.31
60212;BME280;46079;48.686;15.598;2023-03-15T11:03:06;99598.31;;;21.02;36.09
60212;BME280;46079;48.686;15.598;2023-03-15T11:05:43;99604.56;;;21.01;36.36
60212;BME280;46079;48.686;15.598;2023-03-15T11:08:12;99591.41;;;21.01;36.45
60212;BME280;46079;48.686;15.598;2023-03-15T11:10:38;99596.81;;;20.99;36.28
60212;BME280;46079;48.686;15.598;2023-03-15T11:13:17;99588.91;;;20.99;36.40
60212;BME280;46079;48.686;15.598;2023-03-15T11:15:55;99585.47;;;20.99;36.57
60212;BME280;46079;48.686;15.598;2023-03-15T11:18:30;99591.69;;;20.98;36.40
60212;BME280;46079;48.686;15.598;2023-03-15T11:20:56;99583.78;;;20.98;36.63
60212;BME280;46079;48.686;15.598;2023-03-15T11:23:25;99588.22;;;20.97;36.31
60212;BME280;46079;48.686;15.598;2023-03-15T11:25:52;99599.56;;;20.98;36.44
60212;BME280;46079;48.686;15.598;2023-03-15T11:28:25;99599.56;;;20.98;36.40
60212;BME280;46079;48.686;15.598;2023-03-15T11:30:51;99598.63;;;20.99;36.43
60212;BME280;46079;48.686;15.598;2023-03-15T11:33:29;99588.22;;;20.97;36.50
60212;BME280;46079;48.686;15.598;2023-03-15T11:36:02;99608.31;;;20.98;36.64
60212;BME280;46079;48.686;15.598;2023-03-15T11:38:32;99608.31;;;20.98;36.68
60212;BME280;46079;48.686;15.598;2023-03-15T11:41:01;99601.38;;;20.97;36.62
60212;BME280;46079;48.686;15.598;2023-03-15T11:46:30;99603.06;;;20.98;36.84
60212;BME280;46079;48.686;15.598;2023-03-15T11:49:20;99603.19;;;20.97;36.82
60212;BME280;46079;48.686;15.598;2023-03-15T11:51:48;99604.84;;;20.98;36.81
60212;BME280;46079;48.686;15.598;2023-03-15T11:54:16;99603.19;;;20.97;36.76
60212;BME280;46079;48.686;15.598;2023-03-15T11:59:10;99599.88;;;20.95;36.89
60212;BME280;46079;48.686;15.598;2023-03-15T12:01:41;99608.44;;;20.97;36.91
60212;BME280;46079;48.686;15.598;2023-03-15T12:07:02;99600.72;;;20.95;37.03
60212;BME280;46079;48.686;15.598;2023-03-15T12:12:05;99606.00;;;20.95;36.99
60212;BME280;46079;48.686;15.598;2023-03-15T12:14:32;99610.41;;;20.95;37.02
60212;BME280;46079;48.686;15.598;2023-03-15T12:20:16;99607.75;;;20.95;37.05
60212;BME280;46079;48.686;15.598;2023-03-15T12:22:49;99610.41;;;20.95;37.16
60212;BME280;46079;48.686;15.598;2023-03-15T12:25:42;99605.13;;;20.95;37.32
60212;BME280;46079;48.686;15.598;2023-03-15T12:28:20;99599.06;;;20.94;37.31
60212;BME280;46079;48.686;15.598;2023-03-15T12:30:53;99600.72;;;20.95;37.10
60212;BME280;46079;48.686;15.598;2023-03-15T12:33:21;99603.34;;;20.95;37.26
60212;BME280;46079;48.686;15.598;2023-03-15T12:35:48;99607.75;;;20.95;37.18
60212;BME280;46079;48.686;15.598;2023-03-15T12:38:14;99605.13;;;20.95;37.29
60212;BME280;46079;48.686;15.598;2023-03-15T12:40:51;99606.94;;;20.94;37.27
60212;BME280;46079;48.686;15.598;2023-03-15T12:46:00;99620.09;;;20.94;37.12
60212;BME280;46079;48.686;15.598;2023-03-15T12:48:26;99615.66;;;20.95;37.17
60212;BME280;46079;48.686;15.598;2023-03-15T12:50:59;99606.13;;;20.94;37.73
60212;BME280;46079;48.686;15.598;2023-03-15T12:56:28;99609.34;;;20.87;37.41
60212;BME280;46079;48.686;15.598;2023-03-15T13:01:55;99598.16;;;20.85;37.87
60212;BME280;46079;48.686;15.598;2023-03-15T13:04:21;99607.69;;;20.86;37.92
60212;BME280;46079;48.686;15.598;2023-03-15T13:07:12;99601.75;;;20.84;37.88
60212;BME280;46079;48.686;15.598;2023-03-15T13:09:59;99607.97;;;20.83;37.73
60212;BME280;46079;48.686;15.598;2023-03-15T13:15:02;99601.09;;;20.82;37.97
60212;BME280;46079;48.686;15.598;2023-03-15T13:17:41;99601.09;;;20.82;37.86
60212;BME280;46079;48.686;15.598;2023-03-15T13:20:35;99613.41;;;20.82;37.91
60212;BME280;46079;48.686;15.598;2023-03-15T13:25:37;99609.91;;;20.81;37.93
60212;BME280;46079;48.686;15.598;2023-03-15T13:28:21;99599.41;;;20.81;37.74
60212;BME280;46079;48.686;15.598;2023-03-15T13:30:55;99591.53;;;20.81;38.26
60212;BME280;46079;48.686;15.598;2023-03-15T13:33:27;99601.09;;;20.82;37.98
60212;BME280;46079;48.686;15.598;2023-03-15T13:38:30;99595.81;;;20.82;37.76
60212;BME280;46079;48.686;15.598;2023-03-15T13:41:13;99590.56;;;20.82;37.73
60212;BME280;46079;48.686;15.598;2023-03-15T13:43:39;99588.88;;;20.81;37.52
60212;BME280;46079;48.686;15.598;2023-03-15T13:46:07;99583.63;;;20.81;37.87
60212;BME280;46079;48.686;15.598;2023-03-15T13:48:35;99582.69;;;20.82;37.79
60212;BME280;46079;48.686;15.598;2023-03-15T13:51:04;99591.53;;;20.81;38.05